createdAt,value
2018-06-15T00:00:57.499Z,78.59
2018-06-15T00:02:04.223Z,78.59
2018-06-15T00:03:11.042Z,78.66
2018-06-15T00:04:17.735Z,78.67
2018-06-15T00:05:24.441Z,78.69
2018-06-15T00:06:31.140Z,78.68
2018-06-15T00:07:37.849Z,78.69
2018-06-15T00:08:44.562Z,78.74
2018-06-15T00:09:51.276Z,78.73
2018-06-15T00:10:58.098Z,78.74
2018-06-15T00:12:04.797Z,78.77
2018-06-15T00:13:11.510Z,78.86
2018-06-15T00:14:18.349Z,78.94
2018-06-15T00:15:25.015Z,78.95
2018-06-15T00:16:31.861Z,78.96
2018-06-15T00:17:38.553Z,78.95
2018-06-15T00:18:45.719Z,79.02
2018-06-15T00:19:52.393Z,79.03
2018-06-15T00:20:59.533Z,79.06
2018-06-15T00:22:06.269Z,79.05
2018-06-15T00:23:13.095Z,79.09
2018-06-15T00:24:19.822Z,79.13
2018-06-15T00:25:26.723Z,79.19
2018-06-15T00:26:33.590Z,79.21
2018-06-15T00:27:40.303Z,79.25
2018-06-15T00:28:47.171Z,79.25
2018-06-15T00:29:53.834Z,79.31
2018-06-15T00:31:01.126Z,79.35
2018-06-15T00:32:07.894Z,79.36
2018-06-15T00:33:14.567Z,79.37
2018-06-15T00:34:21.921Z,79.41
2018-06-15T00:35:28.534Z,79.45
2018-06-15T00:36:35.767Z,79.46
2018-06-15T00:37:42.488Z,79.46
2018-06-15T00:38:49.662Z,79.51
2018-06-15T00:39:56.678Z,79.49
2018-06-15T00:41:03.646Z,79.50
2018-06-15T00:42:10.325Z,79.57
2018-06-15T00:43:17.057Z,79.60
2018-06-15T00:44:23.931Z,79.64
2018-06-15T00:45:30.582Z,79.63
2018-06-15T00:46:37.745Z,79.66
2018-06-15T00:47:44.689Z,79.65
2018-06-15T00:48:51.394Z,79.65
2018-06-15T00:49:58.127Z,79.67
2018-06-15T00:51:04.799Z,79.71
2018-06-15T00:52:11.645Z,79.73
2018-06-15T00:53:18.370Z,79.74
2018-06-15T00:54:25.078Z,79.71
2018-06-15T00:55:31.764Z,79.75
2018-06-15T00:56:38.667Z,79.76
2018-06-15T00:57:45.731Z,79.78
2018-06-15T00:58:52.643Z,79.78
2018-06-15T00:59:59.486Z,79.75
2018-06-15T01:01:06.164Z,79.76
2018-06-15T01:02:12.938Z,79.76
2018-06-15T01:03:19.730Z,79.79
2018-06-15T01:04:26.488Z,79.82
2018-06-15T01:05:33.234Z,79.86
2018-06-15T01:06:39.879Z,79.88
2018-06-15T01:07:47.014Z,79.91
2018-06-15T01:08:54.365Z,79.90
2018-06-15T01:10:01.058Z,79.87
2018-06-15T01:11:07.974Z,79.91
2018-06-15T01:12:14.680Z,79.91
2018-06-15T01:13:21.306Z,79.88
2018-06-15T01:14:28.499Z,79.91
2018-06-15T01:15:35.170Z,79.88
2018-06-15T01:16:41.994Z,79.89
2018-06-15T01:17:48.966Z,79.89
2018-06-15T01:18:55.709Z,79.86
2018-06-15T01:20:02.426Z,79.89
2018-06-15T01:21:09.262Z,79.92
2018-06-15T01:22:15.953Z,79.93
2018-06-15T01:23:22.772Z,79.93
2018-06-15T01:24:29.496Z,79.95
2018-06-15T01:25:36.214Z,79.96
2018-06-15T01:26:43.033Z,79.96
2018-06-15T01:27:49.976Z,79.97
2018-06-15T01:28:56.654Z,79.95
2018-06-15T01:30:03.486Z,79.98
2018-06-15T01:31:10.210Z,79.96
2018-06-15T01:32:16.961Z,79.98
2018-06-15T01:33:23.747Z,79.96
2018-06-15T01:34:30.461Z,79.93
2018-06-15T01:35:37.178Z,79.93
2018-06-15T01:36:43.995Z,79.96
2018-06-15T01:37:50.827Z,79.94
2018-06-15T01:38:57.838Z,79.97
2018-06-15T01:40:04.593Z,80.04
2018-06-15T01:41:11.274Z,80.00
2018-06-15T01:42:18.619Z,80.02
2018-06-15T01:43:25.301Z,80.03
2018-06-15T01:44:32.042Z,80.06
2018-06-15T01:45:38.769Z,80.05
2018-06-15T01:46:45.499Z,80.05
2018-06-15T01:47:52.265Z,80.03
2018-06-15T01:48:58.985Z,80.05
2018-06-15T01:50:05.730Z,80.09
2018-06-15T01:51:12.440Z,80.09
2018-06-15T01:52:19.159Z,80.08
2018-06-15T01:53:25.850Z,80.09
2018-06-15T01:54:33.074Z,80.11
2018-06-15T01:55:39.814Z,80.13
2018-06-15T01:56:46.519Z,80.14
2018-06-15T01:57:53.358Z,80.17
2018-06-15T01:59:00.056Z,80.21
2018-06-15T02:00:06.800Z,80.17
2018-06-15T02:01:13.479Z,80.22
2018-06-15T02:02:20.693Z,80.26
2018-06-15T02:03:27.437Z,80.25
2018-06-15T02:04:34.161Z,80.26
2018-06-15T02:05:40.934Z,80.27
2018-06-15T02:06:47.639Z,80.29
2018-06-15T02:07:54.345Z,80.30
2018-06-15T02:09:01.082Z,80.35
2018-06-15T02:10:08.149Z,80.36
2018-06-15T02:11:14.832Z,80.33
2018-06-15T02:12:21.512Z,80.37
2018-06-15T02:13:28.242Z,80.39
2018-06-15T02:14:34.998Z,80.42
2018-06-15T02:15:41.676Z,80.43
2018-06-15T02:16:48.386Z,80.44
2018-06-15T02:17:55.106Z,80.44
2018-06-15T02:19:01.951Z,80.47
2018-06-15T02:20:08.699Z,80.48
2018-06-15T02:21:15.432Z,80.48
2018-06-15T02:22:22.164Z,80.50
2018-06-15T02:23:29.063Z,80.54
2018-06-15T02:24:35.709Z,80.55
2018-06-15T02:25:43.067Z,80.59
2018-06-15T02:26:49.761Z,80.58
2018-06-15T02:27:56.461Z,80.59
2018-06-15T02:29:03.314Z,80.63
2018-06-15T02:30:10.279Z,80.66
2018-06-15T02:31:16.933Z,80.70
2018-06-15T02:32:24.245Z,80.73
2018-06-15T02:33:30.846Z,80.70
2018-06-15T02:34:38.039Z,80.73
2018-06-15T02:35:44.973Z,80.75
2018-06-15T02:36:51.671Z,80.79
2018-06-15T02:37:58.375Z,80.81
2018-06-15T02:39:05.090Z,80.81
2018-06-15T02:40:11.943Z,80.83
2018-06-15T02:41:18.659Z,80.83
2018-06-15T02:42:25.346Z,80.82
2018-06-15T02:43:32.539Z,80.83
2018-06-15T02:44:39.280Z,80.86
2018-06-15T02:45:46.015Z,80.85
2018-06-15T02:46:52.993Z,80.86
2018-06-15T02:47:59.624Z,80.85
2018-06-15T02:49:06.854Z,80.85
2018-06-15T02:50:13.579Z,80.85
2018-06-15T02:51:20.294Z,80.82
2018-06-15T02:52:27.032Z,80.83
2018-06-15T02:53:33.679Z,80.83
2018-06-15T02:54:40.406Z,80.84
2018-06-15T02:55:47.050Z,80.83
2018-06-15T02:56:54.178Z,80.86
2018-06-15T02:58:00.927Z,80.83
2018-06-15T02:59:07.787Z,80.85
2018-06-15T03:00:14.435Z,80.83
2018-06-15T03:01:21.810Z,80.85
2018-06-15T03:02:28.537Z,80.86
2018-06-15T03:03:35.335Z,80.90
2018-06-15T03:04:42.026Z,80.91
2018-06-15T03:05:48.771Z,80.89
2018-06-15T03:06:55.489Z,80.96
2018-06-15T03:08:02.170Z,80.94
2018-06-15T03:09:08.891Z,80.96
2018-06-15T03:10:15.851Z,80.98
2018-06-15T03:11:22.563Z,81.00
2018-06-15T03:12:29.366Z,81.04
2018-06-15T03:13:36.070Z,81.05
2018-06-15T03:14:42.696Z,81.06
2018-06-15T03:15:49.845Z,81.05
2018-06-15T03:16:56.939Z,81.08
2018-06-15T03:18:04.068Z,81.12
2018-06-15T03:19:11.313Z,81.13
2018-06-15T03:20:18.074Z,81.17
2018-06-15T03:21:24.774Z,81.16
2018-06-15T03:22:31.464Z,81.19
2018-06-15T03:23:38.307Z,81.25
2018-06-15T03:24:45.172Z,81.32
2018-06-15T03:25:58.051Z,81.32
2018-06-15T03:26:58.962Z,81.31
2018-06-15T03:28:05.666Z,81.32
2018-06-15T03:29:12.283Z,81.34
2018-06-15T03:30:19.502Z,81.38
2018-06-15T03:31:26.249Z,81.37
2018-06-15T03:32:32.966Z,81.39
2018-06-15T03:33:39.674Z,81.40
2018-06-15T03:34:46.422Z,81.44
2018-06-15T03:35:53.301Z,81.47
2018-06-15T03:37:00.029Z,81.49
2018-06-15T03:38:06.750Z,81.52
2018-06-15T03:39:13.476Z,81.55
2018-06-15T03:40:20.685Z,81.53
2018-06-15T03:41:27.414Z,81.53
2018-06-15T03:42:34.090Z,81.52
2018-06-15T03:43:40.726Z,81.53
2018-06-15T03:44:47.922Z,81.51
2018-06-15T03:45:54.570Z,81.58
2018-06-15T03:47:01.910Z,81.60
2018-06-15T03:48:08.818Z,81.62
2018-06-15T03:49:15.736Z,81.61
2018-06-15T03:50:22.434Z,81.62
2018-06-15T03:51:29.678Z,81.65
2018-06-15T03:52:36.547Z,81.71
2018-06-15T03:53:43.195Z,81.77
2018-06-15T03:54:50.450Z,81.78
2018-06-15T03:55:57.158Z,81.85
2018-06-15T03:57:03.870Z,81.86
2018-06-15T03:58:10.619Z,81.88
2018-06-15T03:59:17.285Z,81.90
2018-06-15T04:00:24.506Z,81.88
2018-06-15T04:01:31.284Z,81.92
2018-06-15T04:02:37.970Z,81.97
2018-06-15T04:03:44.659Z,82.00
2018-06-15T04:04:51.635Z,82.00
2018-06-15T04:05:58.290Z,82.07
2018-06-15T04:07:05.533Z,82.07
2018-06-15T04:08:12.234Z,82.08
2018-06-15T04:09:19.454Z,82.11
2018-06-15T04:10:26.182Z,82.16
2018-06-15T04:11:33.087Z,82.20
2018-06-15T04:12:39.814Z,82.24
2018-06-15T04:13:46.536Z,82.26
2018-06-15T04:14:53.235Z,82.33
2018-06-15T04:16:00.383Z,82.34
2018-06-15T04:17:07.735Z,82.41
2018-06-15T04:18:14.411Z,82.37
2018-06-15T04:19:21.130Z,82.36
2018-06-15T04:20:27.878Z,82.37
2018-06-15T04:21:34.591Z,82.40
2018-06-15T04:22:41.265Z,82.44
2018-06-15T04:23:48.007Z,82.44
2018-06-15T04:24:54.730Z,82.46
2018-06-15T04:26:01.429Z,82.45
2018-06-15T04:27:08.598Z,82.45
2018-06-15T04:28:15.367Z,82.49
2018-06-15T04:29:22.198Z,82.47
2018-06-15T04:30:28.887Z,82.47
2018-06-15T04:31:35.644Z,82.54
2018-06-15T04:32:42.259Z,82.57
2018-06-15T04:33:49.794Z,82.58
2018-06-15T04:34:56.708Z,82.61
2018-06-15T04:36:03.370Z,82.63
2018-06-15T04:37:10.118Z,82.64
2018-06-15T04:38:17.122Z,82.67
2018-06-15T04:39:23.838Z,82.69
2018-06-15T04:40:30.667Z,82.72
2018-06-15T04:41:37.370Z,82.78
2018-06-15T04:42:44.122Z,82.82
2018-06-15T04:43:50.890Z,82.86
2018-06-15T04:44:57.517Z,82.88
2018-06-15T04:46:04.530Z,82.90
2018-06-15T04:47:11.271Z,82.93
2018-06-15T04:48:18.159Z,82.97
2018-06-15T04:49:24.858Z,83.00
2018-06-15T04:50:31.667Z,83.03
2018-06-15T04:51:38.319Z,83.04
2018-06-15T04:52:45.749Z,83.09
2018-06-15T04:53:52.479Z,83.14
2018-06-15T04:54:59.213Z,83.19
2018-06-15T04:56:06.110Z,83.18
2018-06-15T04:57:12.874Z,83.23
2018-06-15T04:58:19.568Z,83.26
2018-06-15T04:59:26.683Z,83.31
2018-06-15T05:00:33.722Z,83.36
2018-06-15T05:01:40.435Z,83.36
2018-06-15T05:02:47.326Z,83.40
2018-06-15T05:03:54.168Z,83.42
2018-06-15T05:05:00.853Z,83.47
2018-06-15T05:06:07.555Z,83.54
2018-06-15T05:07:14.830Z,83.55
2018-06-15T05:08:21.503Z,83.56
2018-06-15T05:09:30.925Z,83.57
2018-06-15T05:10:41.641Z,83.63
2018-06-15T05:11:43.487Z,83.64
2018-06-15T05:12:50.007Z,83.63
2018-06-15T05:15:02.754Z,83.66
2018-06-15T05:16:09.579Z,83.68
2018-06-15T05:17:16.336Z,83.68
2018-06-15T05:18:23.284Z,83.66
2018-06-15T05:19:30.051Z,83.69
2018-06-15T05:20:36.791Z,83.74
2018-06-15T05:21:47.492Z,83.78
2018-06-15T05:22:50.324Z,83.79
2018-06-15T05:23:57.203Z,83.82
2018-06-15T05:25:03.927Z,83.85
2018-06-15T05:26:10.655Z,83.89
2018-06-15T05:27:17.385Z,83.88
2018-06-15T05:28:24.078Z,83.92
2018-06-15T05:29:30.862Z,83.90
2018-06-15T05:30:37.618Z,83.96
2018-06-15T05:31:44.330Z,84.03
2018-06-15T05:32:50.971Z,84.06
2018-06-15T05:33:58.202Z,84.02
2018-06-15T05:35:04.884Z,84.05
2018-06-15T05:36:11.699Z,84.06
2018-06-15T05:37:18.354Z,84.05
2018-06-15T05:38:25.480Z,84.06
2018-06-15T05:39:32.783Z,84.11
2018-06-15T05:40:39.427Z,84.14
2018-06-15T05:41:46.118Z,84.19
2018-06-15T05:42:53.305Z,84.19
2018-06-15T05:44:00.464Z,84.20
2018-06-15T05:45:07.073Z,84.19
2018-06-15T05:46:14.215Z,84.19
2018-06-15T05:47:20.918Z,84.21
2018-06-15T05:48:28.024Z,84.25
2018-06-15T05:49:34.878Z,84.25
2018-06-15T05:50:41.563Z,84.19
2018-06-15T05:51:48.294Z,84.16
2018-06-15T05:52:54.958Z,84.11
2018-06-15T05:54:01.759Z,84.15
2018-06-15T05:55:08.482Z,84.13
2018-06-15T05:56:15.302Z,84.10
2018-06-15T05:57:22.011Z,84.05
2018-06-15T05:58:28.721Z,84.00
2018-06-15T05:59:35.463Z,83.95
2018-06-15T06:00:42.280Z,83.94
2018-06-15T06:01:48.995Z,83.87
2018-06-15T06:02:55.850Z,83.85
2018-06-15T06:04:02.570Z,83.82
2018-06-15T06:05:09.719Z,83.72
2018-06-15T06:06:16.562Z,83.67
2018-06-15T06:07:23.265Z,83.63
2018-06-15T06:08:29.949Z,83.61
2018-06-15T06:09:36.667Z,83.64
2018-06-15T06:10:43.490Z,83.61
2018-06-15T06:11:50.287Z,83.54
2018-06-15T06:12:57.105Z,83.43
2018-06-15T06:14:03.818Z,83.37
2018-06-15T06:15:10.448Z,83.35
2018-06-15T06:16:17.818Z,83.33
2018-06-15T06:17:24.482Z,83.21
2018-06-15T06:18:31.344Z,83.16
2018-06-15T06:19:38.059Z,83.10
2018-06-15T06:20:44.709Z,83.06
2018-06-15T06:21:51.922Z,83.05
2018-06-15T06:22:58.567Z,83.03
2018-06-15T06:24:05.278Z,82.93
2018-06-15T06:25:12.503Z,82.86
2018-06-15T06:26:18.714Z,82.81
2018-06-15T06:27:25.401Z,82.80
2018-06-15T06:28:32.269Z,82.76
2018-06-15T06:29:38.942Z,82.79
2018-06-15T06:30:45.710Z,82.76
2018-06-15T06:31:52.587Z,82.74
2018-06-15T06:32:59.301Z,82.75
2018-06-15T06:34:06.242Z,82.73
2018-06-15T06:35:13.055Z,82.79
2018-06-15T06:36:19.800Z,82.87
2018-06-15T06:37:26.691Z,82.88
2018-06-15T06:38:33.642Z,82.89
2018-06-15T06:39:40.418Z,82.89
2018-06-15T06:40:47.378Z,82.90
2018-06-15T06:41:54.272Z,82.90
2018-06-15T06:43:01.263Z,82.91
2018-06-15T06:44:08.116Z,82.94
2018-06-15T06:45:15.081Z,82.93
2018-06-15T06:46:22.046Z,82.94
2018-06-15T06:47:28.746Z,82.88
2018-06-15T06:48:35.618Z,82.89
2018-06-15T06:49:42.531Z,82.93
2018-06-15T06:50:49.231Z,82.95
2018-06-15T06:51:56.091Z,83.01
2018-06-15T06:53:02.966Z,83.04
2018-06-15T06:54:09.893Z,83.04
2018-06-15T06:55:16.666Z,83.06
2018-06-15T06:56:23.443Z,83.13
2018-06-15T06:57:30.562Z,83.15
2018-06-15T06:58:37.467Z,83.15
2018-06-15T06:59:44.164Z,83.15
2018-06-15T07:00:50.907Z,83.16
2018-06-15T07:01:57.698Z,83.16
2018-06-15T07:03:04.672Z,83.15
2018-06-15T07:04:11.511Z,83.23
2018-06-15T07:05:18.244Z,83.29
2018-06-15T07:06:25.224Z,83.29
2018-06-15T07:07:32.127Z,83.33
2018-06-15T07:08:38.819Z,83.38
2018-06-15T07:09:45.654Z,83.42
2018-06-15T07:10:52.523Z,83.44
2018-06-15T07:11:59.264Z,83.46
2018-06-15T07:13:05.979Z,83.46
2018-06-15T07:14:12.928Z,83.47
2018-06-15T07:15:19.959Z,83.48
2018-06-15T07:16:28.687Z,83.51
2018-06-15T07:17:33.475Z,83.50
2018-06-15T07:18:40.344Z,83.47
2018-06-15T07:19:47.219Z,83.46
2018-06-15T07:20:54.019Z,83.32
2018-06-15T07:22:00.793Z,83.32
2018-06-15T07:23:07.723Z,83.38
2018-06-15T07:24:14.587Z,83.46
2018-06-15T07:25:21.379Z,83.42
2018-06-15T07:26:28.231Z,83.13
2018-06-15T07:27:35.132Z,83.06
2018-06-15T07:28:42.129Z,83.01
2018-06-15T07:29:49.150Z,83.00
2018-06-15T07:30:55.968Z,83.14
2018-06-15T07:32:03.005Z,83.27
2018-06-15T07:33:09.874Z,83.44
2018-06-15T07:34:16.858Z,83.63
2018-06-15T07:35:23.889Z,83.62
2018-06-15T07:36:30.775Z,83.35
2018-06-15T07:37:37.591Z,83.41
2018-06-15T07:38:44.719Z,83.57
2018-06-15T07:39:51.598Z,83.63
2018-06-15T07:40:58.370Z,83.62
2018-06-15T07:42:05.410Z,83.69
2018-06-15T07:43:12.060Z,83.71
2018-06-15T07:44:18.953Z,83.61
2018-06-15T07:45:25.898Z,83.54
2018-06-15T07:46:32.794Z,83.54
2018-06-15T07:47:39.710Z,83.57
2018-06-15T07:48:46.634Z,83.63
2018-06-15T07:49:53.415Z,83.67
2018-06-15T07:51:00.357Z,83.59
2018-06-15T07:52:07.234Z,83.37
2018-06-15T07:53:13.959Z,83.25
2018-06-15T07:54:21.026Z,83.09
2018-06-15T07:55:27.955Z,82.97
2018-06-15T07:56:34.642Z,82.92
2018-06-15T07:57:41.799Z,82.90
2018-06-15T07:58:48.758Z,82.72
2018-06-15T07:59:55.383Z,82.71
2018-06-15T08:01:02.494Z,82.71
2018-06-15T08:02:09.558Z,82.70
2018-06-15T08:03:16.119Z,82.77
2018-06-15T08:04:22.999Z,82.75
2018-06-15T08:05:30.384Z,82.72
2018-06-15T08:06:36.727Z,82.68
2018-06-15T08:07:43.497Z,82.71
2018-06-15T08:08:50.542Z,82.72
2018-06-15T08:09:57.278Z,82.64
2018-06-15T08:11:04.115Z,82.46
2018-06-15T08:12:11.115Z,82.46
2018-06-15T08:13:17.850Z,82.60
2018-06-15T08:14:24.704Z,82.58
2018-06-15T08:15:31.630Z,82.66
2018-06-15T08:16:39.610Z,82.74
2018-06-15T08:17:45.732Z,82.76
2018-06-15T08:18:52.749Z,82.73
2018-06-15T08:19:59.606Z,82.72
2018-06-15T08:21:06.700Z,82.67
2018-06-15T08:22:13.479Z,82.50
2018-06-15T08:24:28.008Z,82.41
2018-06-15T08:25:34.786Z,82.41
2018-06-15T08:26:41.702Z,82.44
2018-06-15T08:28:55.353Z,82.42
2018-06-15T08:30:02.253Z,82.31
2018-06-15T08:31:09.171Z,82.30
2018-06-15T08:32:16.112Z,82.26
2018-06-15T08:34:29.870Z,82.33
2018-06-15T08:35:36.631Z,82.37
2018-06-15T08:36:43.631Z,82.38
2018-06-15T08:37:50.650Z,82.35
2018-06-15T08:39:00.583Z,82.36
2018-06-15T08:40:04.323Z,82.39
2018-06-15T08:42:18.924Z,82.33
2018-06-15T08:43:28.022Z,82.46
2018-06-15T08:44:40.270Z,82.64
2018-06-15T08:45:41.926Z,82.79
2018-06-15T08:46:48.116Z,82.79
2018-06-15T08:47:52.352Z,82.84
2018-06-15T08:48:59.251Z,82.90
2018-06-15T08:50:06.412Z,83.03
2018-06-15T08:51:12.821Z,82.85
2018-06-15T08:53:27.117Z,82.86
2018-06-15T08:54:34.234Z,83.08
2018-06-15T08:55:42.586Z,82.93
2018-06-15T08:56:47.928Z,82.98
2018-06-15T10:08:08.550Z,82.90
2018-06-15T10:09:15.418Z,82.63
2018-06-15T10:10:22.354Z,82.69
2018-06-15T10:11:29.221Z,82.73
2018-06-15T10:12:36.169Z,82.66
2018-06-15T10:13:43.444Z,82.71
2018-06-15T10:14:49.887Z,82.81
2018-06-15T10:16:01.275Z,82.84
2018-06-15T10:17:03.639Z,82.52
2018-06-15T10:18:10.528Z,82.81
2018-06-15T10:19:17.458Z,82.59
2018-06-15T10:20:24.451Z,82.58
2018-06-15T10:21:31.202Z,82.81
2018-06-15T10:22:39.685Z,82.54
2018-06-15T10:23:45.071Z,82.21
2018-06-15T10:24:55.679Z,82.33
2018-06-15T10:25:58.989Z,82.37
2018-06-15T10:27:05.941Z,82.46
2018-06-15T10:28:12.827Z,82.50
2018-06-15T10:29:19.826Z,82.48
2018-06-15T10:30:26.520Z,82.53
2018-06-15T10:31:33.285Z,82.52
2018-06-15T10:32:40.183Z,82.67
2018-06-15T10:33:46.892Z,82.37
2018-06-15T10:34:54.668Z,82.29
2018-06-15T10:36:01.228Z,82.14
2018-06-15T10:37:08.116Z,82.17
2018-06-15T10:38:15.002Z,82.09
2018-06-15T10:39:21.978Z,81.93
2018-06-15T10:40:28.635Z,81.83
2018-06-15T10:41:35.468Z,81.84
2018-06-15T10:42:45.536Z,81.72
2018-06-15T10:43:50.202Z,81.53
2018-06-15T10:44:56.799Z,81.61
2018-06-15T10:46:03.723Z,81.62
2018-06-15T10:47:10.719Z,81.57
2018-06-15T10:48:17.651Z,81.69
2018-06-15T10:49:24.440Z,82.07
2018-06-15T10:50:35.266Z,82.16
2018-06-15T10:51:38.198Z,82.45
2018-06-15T10:52:44.947Z,82.11
2018-06-15T10:53:51.783Z,81.93
2018-06-15T10:54:59.602Z,81.56
2018-06-15T10:56:05.360Z,81.81
2018-06-15T10:57:12.251Z,82.09
2018-06-15T10:58:19.155Z,81.86
2018-06-15T10:59:26.071Z,81.67
2018-06-15T11:00:34.483Z,82.16
2018-06-15T11:01:39.721Z,82.38
2018-06-15T11:02:46.649Z,82.34
2018-06-15T11:03:53.355Z,82.33
2018-06-15T11:05:00.737Z,82.31
2018-06-15T11:06:06.981Z,82.22
2018-06-15T11:07:14.194Z,82.51
2018-06-15T11:08:24.695Z,82.82
2018-06-15T11:09:28.281Z,82.42
2018-06-15T11:10:34.727Z,82.67
2018-06-15T11:11:41.751Z,82.47
2018-06-15T11:12:52.230Z,82.44
2018-06-15T11:13:55.523Z,82.54
2018-06-15T11:15:02.544Z,82.52
2018-06-15T11:16:09.947Z,82.25
2018-06-15T11:17:16.442Z,82.36
2018-06-15T11:18:23.288Z,82.33
2018-06-15T11:19:30.077Z,82.60
2018-06-15T11:20:36.965Z,82.42
2018-06-15T11:21:46.557Z,82.59
2018-06-15T11:22:55.977Z,82.63
2018-06-15T11:24:00.575Z,82.66
2018-06-15T11:25:07.539Z,82.68
2018-06-15T11:29:09.686Z,82.54
2018-06-15T11:30:16.567Z,82.36
2018-06-15T11:31:23.314Z,82.06
2018-06-15T11:32:30.257Z,82.06
2018-06-15T11:33:37.039Z,81.99
2018-06-15T11:34:44.111Z,82.04
2018-06-15T11:35:50.838Z,81.72
2018-06-15T11:36:57.922Z,81.38
2018-06-15T11:38:04.636Z,81.03
2018-06-15T11:40:18.353Z,80.93
2018-06-15T11:41:25.257Z,80.95
2018-06-15T11:42:32.147Z,80.93
2018-06-15T11:44:04.336Z,80.68
2018-06-15T11:45:11.522Z,80.66
2018-06-15T11:46:19.660Z,80.55
2018-06-15T11:47:25.140Z,80.44
2018-06-15T11:49:38.636Z,80.72
2018-06-15T11:50:45.633Z,80.90
2018-06-15T11:51:52.339Z,80.45
2018-06-15T11:52:59.174Z,80.42
2018-06-15T11:54:05.857Z,80.18
2018-06-15T11:55:12.995Z,79.60
2018-06-15T11:56:21.691Z,79.34
2018-06-15T11:57:27.908Z,79.13
2018-06-15T11:58:34.940Z,79.02
2018-06-15T11:59:44.095Z,79.05
2018-06-15T12:00:49.974Z,79.22
2018-06-15T12:01:54.107Z,79.43
2018-06-15T12:03:00.824Z,79.34
2018-06-15T12:04:07.881Z,78.92
2018-06-15T12:05:14.568Z,78.76
2018-06-15T12:06:21.278Z,78.79
2018-06-15T12:07:28.482Z,78.50
2018-06-15T12:08:35.802Z,78.37
2018-06-15T12:09:42.606Z,78.37
2018-06-15T12:10:49.419Z,78.14
2018-06-15T12:11:56.108Z,78.05
2018-06-15T12:13:03.136Z,77.72
2018-06-15T12:14:09.863Z,77.38
2018-06-15T12:15:16.642Z,77.25
2018-06-15T12:16:23.378Z,76.94
2018-06-15T12:17:30.593Z,77.23
2018-06-15T12:18:37.390Z,76.76
2018-06-15T12:19:49.041Z,76.33
2018-06-15T12:20:51.397Z,75.81
2018-06-15T12:21:58.318Z,75.86
2018-06-15T12:23:05.351Z,75.62
2018-06-15T12:24:12.155Z,75.33
2018-06-15T12:25:18.918Z,75.24
2018-06-15T12:26:25.689Z,75.23
2018-06-15T12:27:32.663Z,75.14
2018-06-15T12:28:39.429Z,74.97
2018-06-15T12:29:46.087Z,74.64
2018-06-15T12:30:52.832Z,74.74
2018-06-15T12:31:59.986Z,74.89
2018-06-15T12:33:06.682Z,74.81
2018-06-15T12:34:13.512Z,74.60
2018-06-15T12:35:20.466Z,74.41
2018-06-15T12:36:27.309Z,74.13
2018-06-15T12:37:34.094Z,73.86
2018-06-15T12:38:41.030Z,73.83
2018-06-15T12:39:47.935Z,73.92
2018-06-15T12:40:54.652Z,73.89
2018-06-15T12:42:01.524Z,73.65
2018-06-15T12:43:08.285Z,73.48
2018-06-15T12:44:15.755Z,73.16
2018-06-15T12:45:22.157Z,73.15
2018-06-15T12:46:28.859Z,72.97
2018-06-15T12:47:35.590Z,72.84
2018-06-15T12:48:42.493Z,72.81
2018-06-15T12:49:49.234Z,72.63
2018-06-15T12:50:56.021Z,72.54
2018-06-15T12:52:02.728Z,72.71
2018-06-15T12:53:09.487Z,72.71
2018-06-15T12:54:16.197Z,72.74
2018-06-15T12:55:23.153Z,72.67
2018-06-15T12:56:30.127Z,72.49
2018-06-15T12:57:36.815Z,72.84
2018-06-15T12:58:43.554Z,72.70
2018-06-15T12:59:50.525Z,72.37
2018-06-15T13:00:57.248Z,72.35
2018-06-15T13:02:03.974Z,72.35
2018-06-15T13:03:10.734Z,72.32
2018-06-15T13:04:17.495Z,72.30
2018-06-15T13:05:24.204Z,72.22
2018-06-15T13:06:31.066Z,72.43
2018-06-15T13:07:37.928Z,72.52
2018-06-15T13:08:44.870Z,72.31
2018-06-15T13:09:51.593Z,72.45
2018-06-15T13:10:58.337Z,72.20
2018-06-15T13:12:05.268Z,72.34
2018-06-15T13:13:12.031Z,72.48
2018-06-15T13:14:18.956Z,72.26
2018-06-15T13:15:25.765Z,71.99
2018-06-15T13:16:32.559Z,72.08
2018-06-15T13:17:39.782Z,72.28
2018-06-15T13:18:46.514Z,72.14
2018-06-15T13:19:53.217Z,72.15
2018-06-15T13:21:00.051Z,72.12
2018-06-15T13:22:06.810Z,72.39
2018-06-15T13:23:13.589Z,72.48
2018-06-15T13:24:20.358Z,72.45
2018-06-15T13:25:27.177Z,72.32
2018-06-15T13:26:33.866Z,72.36
2018-06-15T13:27:41.090Z,72.37
2018-06-15T13:28:47.842Z,72.19
2018-06-15T13:29:54.767Z,72.04
2018-06-15T13:31:01.575Z,72.45
2018-06-15T13:32:08.522Z,72.56
2018-06-15T13:33:15.214Z,72.56
2018-06-15T13:34:21.935Z,72.45
2018-06-15T13:35:28.745Z,72.29
2018-06-15T13:36:35.463Z,72.40
2018-06-15T13:37:42.169Z,72.82
2018-06-15T13:38:48.938Z,72.81
2018-06-15T13:39:55.825Z,72.90
2018-06-15T13:41:02.643Z,72.95
2018-06-15T13:42:09.362Z,72.71
2018-06-15T13:43:16.071Z,72.55
2018-06-15T13:44:22.933Z,72.67
2018-06-15T13:45:29.618Z,72.59
2018-06-15T13:46:36.455Z,72.93
2018-06-15T13:47:43.146Z,73.10
2018-06-15T13:48:49.898Z,73.06
2018-06-15T13:49:56.600Z,73.16
2018-06-15T13:51:03.447Z,72.84
2018-06-15T13:52:10.152Z,72.66
2018-06-15T13:53:17.186Z,72.79
2018-06-15T13:54:24.057Z,72.92
2018-06-15T13:55:30.735Z,72.96
2018-06-15T13:56:37.521Z,72.72
2018-06-15T13:57:44.262Z,72.48
2018-06-15T13:58:50.966Z,72.27
2018-06-15T13:59:57.588Z,72.64
2018-06-15T14:01:04.603Z,72.70
2018-06-15T14:02:11.443Z,72.42
2018-06-15T14:03:18.446Z,72.54
2018-06-15T14:04:25.199Z,72.23
2018-06-15T14:05:32.016Z,72.13
2018-06-15T14:06:38.926Z,71.85
2018-06-15T14:07:45.638Z,72.02
2018-06-15T14:08:52.566Z,71.95
2018-06-15T14:09:59.270Z,71.72
2018-06-15T14:11:05.974Z,71.31
2018-06-15T14:12:14.092Z,70.99
2018-06-15T14:13:19.928Z,71.05
2018-06-15T14:14:26.995Z,71.20
2018-06-15T14:15:34.027Z,70.96
2018-06-15T14:16:40.767Z,71.07
2018-06-15T14:17:47.682Z,71.06
2018-06-15T14:18:54.446Z,70.79
2018-06-15T14:20:01.279Z,70.43
2018-06-15T14:21:08.054Z,70.49
2018-06-15T14:22:14.933Z,70.37
2018-06-15T14:23:21.909Z,70.26
2018-06-15T14:24:28.798Z,70.18
2018-06-15T14:25:35.891Z,70.36
2018-06-15T14:26:42.566Z,70.55
2018-06-15T14:27:49.467Z,70.41
2018-06-15T14:30:04.824Z,70.98
2018-06-15T14:31:09.678Z,71.27
2018-06-15T14:32:16.728Z,71.12
2018-06-15T14:33:23.320Z,71.05
2018-06-15T14:34:30.259Z,71.28
2018-06-15T14:35:37.094Z,71.38
2018-06-15T14:36:44.027Z,71.52
2018-06-15T14:37:50.830Z,71.40
2018-06-15T14:38:57.757Z,71.58
2018-06-15T14:40:04.691Z,71.31
2018-06-15T14:41:11.569Z,71.22
2018-06-15T14:42:20.531Z,71.11
2018-06-15T14:43:25.595Z,71.23
2018-06-15T14:44:34.281Z,71.46
2018-06-15T14:45:39.558Z,71.62
2018-06-15T14:46:46.402Z,71.75
2018-06-15T14:47:53.018Z,71.88
2018-06-15T14:49:00.264Z,71.85
2018-06-15T14:50:07.102Z,72.09
2018-06-15T14:51:14.051Z,71.69
2018-06-15T14:52:21.007Z,71.69
2018-06-15T14:53:27.970Z,71.95
2018-06-15T14:54:34.777Z,71.96
2018-06-15T14:55:41.856Z,71.51
2018-06-15T14:56:48.829Z,71.92
2018-06-15T14:57:55.603Z,71.88
2018-06-15T14:59:02.332Z,71.64
2018-06-15T15:00:09.009Z,71.63
2018-06-15T15:01:16.366Z,71.64
2018-06-15T15:02:23.052Z,70.97
2018-06-15T15:03:29.975Z,70.33
2018-06-15T15:04:36.686Z,70.09
2018-06-15T15:05:43.419Z,69.87
2018-06-15T15:06:50.344Z,69.54
2018-06-15T15:07:57.065Z,69.36
2018-06-15T15:09:03.800Z,69.08
2018-06-15T15:10:10.743Z,68.75
2018-06-15T15:11:17.531Z,68.67
2018-06-15T15:12:24.455Z,68.47
2018-06-15T15:13:31.191Z,68.24
2018-06-15T15:14:38.110Z,67.81
2018-06-15T15:15:44.836Z,67.71
2018-06-15T15:16:51.726Z,67.41
2018-06-15T15:17:58.441Z,67.29
2018-06-15T15:19:05.578Z,67.14
2018-06-15T15:20:16.156Z,67.19
2018-06-15T15:21:19.388Z,67.08
2018-06-15T15:22:26.335Z,67.19
2018-06-15T15:23:33.319Z,67.41
2018-06-15T15:24:40.274Z,67.32
2018-06-15T15:25:47.378Z,67.51
2018-06-15T15:26:55.186Z,67.30
2018-06-15T15:28:01.350Z,67.44
2018-06-15T15:29:08.285Z,67.10
2018-06-15T15:30:15.271Z,67.17
2018-06-15T15:31:22.415Z,66.69
2018-06-15T15:32:29.142Z,66.88
2018-06-15T15:33:35.969Z,67.39
2018-06-15T15:34:42.979Z,67.28
2018-06-15T15:35:52.979Z,67.28
2018-06-15T15:36:56.991Z,67.31
2018-06-15T15:38:03.296Z,67.48
2018-06-15T15:39:10.298Z,67.47
2018-06-15T15:41:24.182Z,67.65
2018-06-15T15:42:31.109Z,67.53
2018-06-15T15:43:37.809Z,67.41
2018-06-15T15:44:44.565Z,67.19
2018-06-15T15:45:51.549Z,66.89